Hauptseite
METAR-TAF:

METAR-TAF

Flughäfen :

Flughafen Kiel

Kiel, Deutschland

Breite: 54-23N, Länge: 010-10E, Höhe: 31 m

Beobachtung

Neuester Wetterbericht von vor 11 Stunden und 31 Minuten, um 17:50 UTC
Wind 12 kt aus West/Nordwest
Temperatur 13°C
Luftfeuchtigkeit 94%
Luftdruck 1019 hPa
Sichtweite: 8000 m
Durchbrochene Bewölkung in der Höhe von 700 ft

METAR: EDHK 231750Z 29012KT 8000 BKN007 13/12 Q1019

Zeit: 07:21 (05:21 UTC)

Prognose

Neuester Wetterbericht von vor 15 Stunden und 21 Minuten, um 14:00 UTC
Gültige Prognose vom 23 um 15 UTC bis 23 um 18 UTC
Wind 12 kt aus West/Nordwest
Sichtweite 10 km oder mehr
Aufgelockert bewölkt in der Höhe von 2000 ft
Zeitweise
vom 23 um 15 UTC bis 23 um 18 UTC
Wind 15 kt aus West/Nordwest, Böen bis zu 25 kt
Sichtweite: 4500 m
Durchbrochene Bewölkung in der Höhe von 1200 ft
Leichtregen

TAF: EDHK 231400Z 2315/2318 29012KT 9999 SCT020 TEMPO 2315/2318 30015G25KT 4500 -RA BKN012

Wetterbeobachtungen und Prognosen von mehr als 4000 Flughäfen (METAR und TAF Bericht).

Die verfügbaren Stationen werden durch gelbe und rote Markierungen auf der Karte dargestellt.

Führen Sie die Maus auf sie, um den Namen der Station zu sehen.

Darauf klicken, um die Beobachtung von Wetterbeobachtungen und Prognosen zu sehen.

Um die Karte zu ändern : klicken Sie auf den grünen Tasten mit einem schwarzen Kreuz Zum Vergrößern, auf den grünen Button mit einem Gedankenstrich zu verkleinern, oder auf die grünen Pfeile für benachbarte Karten.


METAR-TAF: